createdAt,value
2018-12-24T00:01:29.722Z,38.67
2018-12-24T00:04:00.142Z,31.67
2018-12-24T00:06:30.292Z,25.43
2018-12-24T00:09:00.497Z,22.57
2018-12-24T00:11:30.956Z,29.27
2018-12-24T00:14:01.266Z,28.87
2018-12-24T00:16:31.585Z,34.20
2018-12-24T00:19:01.938Z,30.03
2018-12-24T00:21:32.407Z,30.83
2018-12-24T00:24:02.591Z,32.93
2018-12-24T00:26:32.839Z,34.23
2018-12-24T00:29:03.355Z,34.37
2018-12-24T00:31:33.733Z,38.73
2018-12-24T00:34:03.942Z,39.77
2018-12-24T00:36:34.314Z,44.43
2018-12-24T00:39:06.098Z,42.83
2018-12-24T00:41:36.391Z,42.87
2018-12-24T00:44:06.593Z,38.50
2018-12-24T00:46:36.845Z,37.10
2018-12-24T00:49:07.138Z,36.83
2018-12-24T00:51:37.305Z,38.47
2018-12-24T00:54:09.567Z,37.53
2018-12-24T00:56:39.751Z,34.33
2018-12-24T00:59:09.984Z,32.50
2018-12-24T01:01:40.180Z,41.63
2018-12-24T01:04:13.453Z,37.40
2018-12-24T01:06:43.758Z,37.37
2018-12-24T01:09:14.074Z,44.10
2018-12-24T01:11:44.376Z,33.30
2018-12-24T01:14:14.539Z,35.77
2018-12-24T01:16:44.955Z,30.53
2018-12-24T01:19:15.229Z,32.23
2018-12-24T01:21:45.427Z,30.83
2018-12-24T01:24:15.647Z,33.47
2018-12-24T01:26:45.984Z,33.93
2018-12-24T01:29:16.319Z,35.83
2018-12-24T01:31:46.627Z,34.43
2018-12-24T01:34:16.894Z,29.03
2018-12-24T01:36:47.147Z,35.83
2018-12-24T01:39:17.342Z,35.63
2018-12-24T01:41:50.037Z,34.90
2018-12-24T01:44:20.326Z,33.40
2018-12-24T01:46:50.477Z,35.00
2018-12-24T01:49:20.654Z,30.43
2018-12-24T01:51:50.845Z,35.17
2018-12-24T01:54:21.010Z,36.93
2018-12-24T01:56:51.207Z,35.53
2018-12-24T01:59:21.475Z,35.73
2018-12-24T02:01:51.750Z,38.50
2018-12-24T02:04:21.993Z,33.93
2018-12-24T02:06:52.334Z,36.63
2018-12-24T02:09:22.531Z,35.13
2018-12-24T02:11:52.919Z,36.80
2018-12-24T02:14:23.126Z,35.30
2018-12-24T02:16:53.398Z,34.50
2018-12-24T02:19:23.587Z,36.13
2018-12-24T02:21:53.810Z,40.23
2018-12-24T02:24:24.018Z,34.67
2018-12-24T02:26:54.237Z,37.53
2018-12-24T02:29:24.405Z,27.20
2018-12-24T02:31:54.605Z,30.43
2018-12-24T02:34:24.838Z,34.57
2018-12-24T02:36:55.178Z,27.73
2018-12-24T02:39:25.367Z,31.30
2018-12-24T02:41:55.567Z,34.27
2018-12-24T02:44:25.743Z,28.60
2018-12-24T02:46:55.950Z,29.73
2018-12-24T02:49:26.155Z,28.67
2018-12-24T02:51:56.454Z,28.77
2018-12-24T02:54:26.613Z,26.87
2018-12-24T02:56:56.912Z,29.10
2018-12-24T02:59:27.100Z,29.00
2018-12-24T03:01:57.374Z,29.07
2018-12-24T03:04:27.562Z,28.30
2018-12-24T03:06:57.755Z,30.37
2018-12-24T03:09:28.004Z,31.10
2018-12-24T03:11:58.291Z,31.53
2018-12-24T03:14:28.486Z,31.40
2018-12-24T03:16:58.810Z,30.37
2018-12-24T03:19:29.126Z,29.77
2018-12-24T03:21:59.341Z,26.53
2018-12-24T03:24:29.903Z,25.23
2018-12-24T03:27:00.075Z,22.30
2018-12-24T03:29:30.357Z,23.27
2018-12-24T03:32:00.609Z,20.27
2018-12-24T03:34:30.840Z,22.43
2018-12-24T03:37:01.070Z,23.40
2018-12-24T03:39:31.420Z,24.87
2018-12-24T03:42:01.695Z,26.43
2018-12-24T03:44:31.955Z,23.97
2018-12-24T03:47:02.208Z,25.47
2018-12-24T03:49:32.496Z,30.33
2018-12-24T03:52:02.700Z,32.27
2018-12-24T03:54:32.949Z,27.13
2018-12-24T03:57:03.210Z,27.37
2018-12-24T03:59:33.559Z,32.63
2018-12-24T04:02:03.751Z,27.10
2018-12-24T04:04:33.978Z,28.57
2018-12-24T04:07:04.245Z,28.83
2018-12-24T04:09:34.428Z,29.70
2018-12-24T04:12:05.178Z,25.40
2018-12-24T04:14:35.401Z,20.37
2018-12-24T04:17:05.166Z,22.67
2018-12-24T04:19:35.487Z,27.63
2018-12-24T04:22:05.662Z,26.07
2018-12-24T04:24:36.131Z,31.10
2018-12-24T04:27:06.409Z,28.93
2018-12-24T04:29:36.598Z,30.20
2018-12-24T04:32:06.830Z,28.53
2018-12-24T04:34:37.121Z,27.97
2018-12-24T04:37:07.358Z,32.33
2018-12-24T04:39:37.626Z,27.40
2018-12-24T04:42:07.907Z,28.80
2018-12-24T04:44:38.192Z,31.10
2018-12-24T04:47:08.351Z,28.83
2018-12-24T04:49:38.649Z,28.83
2018-12-24T04:52:08.889Z,30.73
2018-12-24T04:54:39.098Z,29.80
2018-12-24T04:57:09.246Z,27.87
2018-12-24T04:59:39.705Z,28.73
2018-12-24T05:02:09.966Z,29.20
2018-12-24T05:04:40.167Z,28.07
2018-12-24T05:07:10.385Z,31.73
2018-12-24T05:09:40.776Z,29.60
2018-12-24T05:12:10.945Z,32.57
2018-12-24T05:14:41.094Z,36.40
2018-12-24T05:17:11.279Z,38.30
2018-12-24T05:19:41.576Z,38.33
2018-12-24T05:22:11.882Z,38.60
2018-12-24T05:24:42.587Z,35.50
2018-12-24T05:27:12.843Z,36.97
2018-12-24T05:29:43.141Z,33.63
2018-12-24T05:32:13.393Z,35.27
2018-12-24T05:34:43.590Z,36.77
2018-12-24T05:37:13.750Z,32.10
2018-12-24T05:39:43.987Z,32.97
2018-12-24T05:42:14.159Z,34.07
2018-12-24T05:44:44.336Z,38.17
2018-12-24T05:47:14.576Z,34.40
2018-12-24T05:49:44.895Z,40.27
2018-12-24T05:52:15.110Z,36.77
2018-12-24T05:54:45.275Z,39.47
2018-12-24T05:57:15.465Z,44.10
2018-12-24T05:59:45.618Z,38.23
2018-12-24T06:02:15.784Z,39.17
2018-12-24T06:04:46.043Z,40.97
2018-12-24T06:07:16.191Z,46.57
2018-12-24T06:09:46.558Z,46.07
2018-12-24T06:12:16.720Z,48.93
2018-12-24T06:14:47.198Z,47.03
2018-12-24T06:17:17.539Z,50.83
2018-12-24T06:19:47.799Z,51.73
2018-12-24T06:22:18.065Z,61.90
2018-12-24T06:24:48.414Z,61.20
2018-12-24T06:27:18.665Z,61.37
2018-12-24T06:29:48.943Z,59.00
2018-12-24T06:32:19.418Z,53.53
2018-12-24T06:34:49.614Z,60.17
2018-12-24T06:37:19.817Z,54.87
2018-12-24T06:39:50.037Z,54.47
2018-12-24T06:42:20.191Z,51.87
2018-12-24T06:44:50.494Z,55.77
2018-12-24T06:47:20.698Z,53.73
2018-12-24T06:49:50.942Z,56.17
2018-12-24T06:52:21.138Z,55.83
2018-12-24T06:54:51.324Z,50.47
2018-12-24T06:57:21.533Z,51.80
2018-12-24T06:59:51.752Z,50.03
2018-12-24T07:02:22.085Z,50.13
2018-12-24T07:04:52.285Z,53.63
2018-12-24T07:07:22.463Z,53.93
2018-12-24T07:09:52.660Z,51.43
2018-12-24T07:12:22.872Z,52.17
2018-12-24T07:14:53.186Z,55.57
2018-12-24T07:17:23.453Z,51.33
2018-12-24T07:19:53.705Z,54.00
2018-12-24T07:22:24.042Z,48.87
2018-12-24T07:24:54.246Z,48.27
2018-12-24T07:27:24.526Z,40.23
2018-12-24T07:29:54.677Z,42.07
2018-12-24T07:32:24.906Z,46.13
2018-12-24T07:34:55.115Z,42.63
2018-12-24T07:37:25.309Z,39.70
2018-12-24T07:39:55.490Z,41.53
2018-12-24T07:42:26.005Z,38.53
2018-12-24T07:44:56.214Z,43.93
2018-12-24T07:47:26.419Z,33.23
2018-12-24T07:49:56.822Z,34.23
2018-12-24T07:52:27.090Z,30.87
2018-12-24T07:54:57.258Z,33.43
2018-12-24T07:57:27.482Z,30.80
2018-12-24T07:59:57.705Z,27.97
2018-12-24T08:02:27.877Z,25.47
2018-12-24T08:04:58.049Z,22.63
2018-12-24T08:07:28.256Z,24.70
2018-12-24T08:09:58.492Z,24.70
2018-12-24T08:12:28.685Z,26.53
2018-12-24T08:14:58.921Z,26.83
2018-12-24T08:17:29.170Z,23.47
2018-12-24T08:19:59.390Z,27.17
2018-12-24T08:22:29.630Z,113.30
2018-12-24T08:24:59.797Z,48.97
2018-12-24T08:27:29.993Z,34.83
2018-12-24T08:30:00.331Z,45.13
2018-12-24T08:32:30.577Z,36.07
2018-12-24T08:35:00.895Z,25.00
2018-12-24T08:37:31.201Z,32.97
2018-12-24T08:40:01.382Z,21.13
2018-12-24T08:42:31.634Z,21.47
2018-12-24T08:45:01.970Z,20.70
2018-12-24T08:47:32.391Z,19.97
2018-12-24T08:50:02.590Z,17.83
2018-12-24T08:52:32.953Z,19.17
2018-12-24T08:55:03.093Z,31.10
2018-12-24T08:57:33.669Z,29.60
2018-12-24T09:00:04.385Z,30.77
2018-12-24T09:02:35.047Z,17.40
2018-12-24T09:05:05.540Z,51.10
2018-12-24T09:07:35.879Z,117.10
2018-12-24T09:10:06.255Z,31.17
2018-12-24T09:12:36.450Z,23.00
2018-12-24T09:15:07.835Z,18.63
2018-12-24T09:17:38.075Z,16.03
2018-12-24T09:20:09.058Z,18.20
2018-12-24T09:22:39.409Z,21.40
2018-12-24T09:25:09.783Z,20.33
2018-12-24T09:27:40.012Z,16.87
2018-12-24T09:30:12.882Z,23.73
2018-12-24T09:32:43.147Z,13.63
2018-12-24T09:35:13.445Z,19.83
2018-12-24T09:37:43.921Z,87.53
2018-12-24T09:40:15.485Z,20.67
2018-12-24T09:42:45.858Z,24.20
2018-12-24T09:45:16.096Z,13.57
2018-12-24T09:47:46.414Z,23.53
2018-12-24T09:50:16.645Z,39.63
2018-12-24T09:52:46.996Z,59.50
2018-12-24T09:55:17.329Z,21.77
2018-12-24T09:57:47.807Z,26.37
2018-12-24T10:00:18.361Z,27.40
2018-12-24T10:02:59.543Z,27.20
2018-12-24T10:05:30.248Z,10.67
2018-12-24T10:08:03.600Z,71.63
2018-12-24T10:10:33.953Z,113.73
2018-12-24T10:13:04.093Z,28.77
2018-12-24T10:15:34.510Z,29.30
2018-12-24T10:18:04.732Z,53.53
2018-12-24T10:20:35.042Z,25.97
2018-12-24T10:23:05.395Z,35.73
2018-12-24T10:25:35.650Z,29.93
2018-12-24T10:28:06.000Z,44.63
2018-12-24T10:30:36.200Z,41.17
2018-12-24T10:33:06.494Z,27.53
2018-12-24T10:35:36.726Z,20.53
2018-12-24T10:38:06.919Z,21.47
2018-12-24T10:40:42.642Z,24.43
2018-12-24T10:43:12.825Z,20.10
2018-12-24T10:45:43.072Z,28.20
2018-12-24T10:48:13.270Z,21.80
2018-12-24T10:50:43.515Z,28.40
2018-12-24T10:53:13.710Z,19.70
2018-12-24T10:55:43.857Z,21.53
2018-12-24T10:58:14.527Z,19.83
2018-12-24T11:00:44.843Z,18.40
2018-12-24T11:03:15.147Z,19.73
2018-12-24T11:05:45.443Z,19.40
2018-12-24T11:08:15.630Z,18.67
2018-12-24T11:10:46.765Z,20.97
2018-12-24T11:13:17.199Z,19.17
2018-12-24T11:15:47.538Z,17.50
2018-12-24T11:18:17.786Z,21.17
2018-12-24T11:20:48.109Z,18.40
2018-12-24T11:23:18.342Z,14.53
2018-12-24T11:25:48.598Z,14.30
2018-12-24T11:28:18.801Z,16.83
2018-12-24T11:30:49.016Z,12.40
2018-12-24T11:33:19.314Z,15.73
2018-12-24T11:35:51.761Z,19.93
2018-12-24T11:38:22.467Z,12.67
2018-12-24T11:40:52.639Z,15.00
2018-12-24T11:43:22.858Z,33.17
2018-12-24T11:45:53.047Z,17.20
2018-12-24T11:48:23.367Z,21.53
2018-12-24T11:50:53.597Z,16.80
2018-12-24T11:53:23.765Z,13.57
2018-12-24T11:55:53.964Z,17.80
2018-12-24T11:58:24.221Z,19.77
2018-12-24T12:00:54.540Z,14.60
2018-12-24T12:03:24.874Z,16.13
2018-12-24T12:05:55.177Z,20.03
2018-12-24T12:08:25.559Z,19.70
2018-12-24T12:10:55.844Z,17.97
2018-12-24T12:13:26.149Z,19.60
2018-12-24T12:15:56.522Z,19.70
2018-12-24T12:18:26.746Z,24.97
2018-12-24T12:20:57.234Z,23.50
2018-12-24T12:23:27.522Z,24.57
2018-12-24T12:25:57.761Z,23.27
2018-12-24T12:28:28.103Z,21.50
2018-12-24T12:30:58.621Z,24.43
2018-12-24T12:33:28.981Z,21.87
2018-12-24T12:35:59.292Z,21.97
2018-12-24T12:38:29.969Z,21.57
2018-12-24T12:41:00.482Z,21.90
2018-12-24T12:43:30.758Z,64.60
2018-12-24T12:46:00.994Z,22.13
2018-12-24T12:48:31.271Z,17.20
2018-12-24T12:51:01.451Z,21.90
2018-12-24T12:53:31.790Z,21.30
2018-12-24T12:56:03.868Z,20.43
2018-12-24T12:58:33.947Z,12.07
2018-12-24T13:01:04.106Z,14.53
2018-12-24T13:03:34.422Z,13.10
2018-12-24T13:06:04.609Z,13.20
2018-12-24T13:08:34.901Z,10.67
2018-12-24T13:11:05.203Z,12.33
2018-12-24T13:13:36.942Z,15.93
2018-12-24T13:16:07.554Z,13.73
2018-12-24T13:18:37.735Z,13.63
2018-12-24T13:21:07.938Z,12.77
2018-12-24T13:23:38.186Z,12.33
2018-12-24T13:26:08.434Z,12.63
2018-12-24T13:28:38.735Z,13.50
2018-12-24T13:31:09.024Z,12.73
2018-12-24T13:33:39.502Z,13.87
2018-12-24T13:36:09.653Z,14.93
2018-12-24T13:38:41.012Z,18.37
2018-12-24T13:41:11.193Z,14.70
2018-12-24T13:43:41.606Z,17.23
2018-12-24T13:46:12.964Z,17.30
2018-12-24T13:48:43.166Z,21.93
2018-12-24T13:51:13.463Z,30.63
2018-12-24T13:53:45.090Z,30.97
2018-12-24T13:56:15.323Z,33.43
2018-12-24T13:58:45.726Z,25.77
2018-12-24T14:01:17.035Z,27.40
2018-12-24T14:03:47.257Z,24.53
2018-12-24T14:06:17.530Z,27.50
2018-12-24T14:08:47.933Z,25.77
2018-12-24T14:11:18.242Z,19.77
2018-12-24T14:13:48.615Z,19.07
2018-12-24T14:16:18.903Z,29.10
2018-12-24T14:18:49.217Z,23.60
2018-12-24T14:21:19.423Z,26.43
2018-12-24T14:23:49.673Z,22.47
2018-12-24T14:26:20.112Z,31.40
2018-12-24T14:28:50.335Z,30.60
2018-12-24T14:31:20.541Z,31.17
2018-12-24T14:33:50.714Z,31.27
2018-12-24T14:36:20.962Z,25.40
2018-12-24T14:38:51.156Z,22.37
2018-12-24T14:41:21.358Z,31.23
2018-12-24T14:43:51.697Z,27.57
2018-12-24T14:46:25.686Z,40.10
2018-12-24T14:48:54.078Z,33.23
2018-12-24T14:51:24.343Z,31.17
2018-12-24T14:53:54.584Z,29.57
2018-12-24T14:56:24.994Z,32.57
2018-12-24T14:58:55.226Z,30.90
2018-12-24T15:01:25.546Z,29.33
2018-12-24T15:03:55.757Z,34.63
2018-12-24T15:06:25.953Z,27.73
2018-12-24T15:08:56.208Z,32.17
2018-12-24T15:11:26.393Z,35.83
2018-12-24T15:13:56.604Z,34.80
2018-12-24T15:16:33.766Z,29.20
2018-12-24T15:18:58.658Z,28.67
2018-12-24T15:21:29.082Z,26.97
2018-12-24T15:23:59.274Z,33.70
2018-12-24T15:26:29.442Z,34.27
2018-12-24T15:29:01.390Z,34.23
2018-12-24T15:31:31.782Z,32.30
2018-12-24T15:34:02.041Z,28.50
2018-12-24T15:36:34.658Z,27.67
2018-12-24T15:39:06.731Z,30.67
2018-12-24T15:41:37.018Z,28.10
2018-12-24T15:44:07.233Z,60.17
2018-12-24T15:46:42.669Z,98.00
2018-12-24T15:49:09.348Z,86.60
2018-12-24T15:51:39.618Z,55.70
2018-12-24T15:54:13.222Z,44.53
2018-12-24T15:56:43.761Z,36.80
2018-12-24T15:59:14.051Z,45.93
2018-12-24T16:01:44.506Z,37.73
2018-12-24T16:04:14.693Z,36.23
2018-12-24T16:06:44.986Z,35.30
2018-12-24T16:09:15.170Z,39.70
2018-12-24T16:11:45.364Z,34.13
2018-12-24T16:14:16.621Z,38.07
2018-12-24T16:16:50.975Z,38.90
2018-12-24T16:19:18.718Z,41.87
2018-12-24T16:21:48.954Z,38.97
2018-12-24T16:24:19.213Z,40.83
2018-12-24T16:26:49.836Z,42.27
2018-12-24T16:29:20.087Z,35.77
2018-12-24T16:31:50.278Z,34.77
2018-12-24T16:34:20.535Z,34.40
2018-12-24T16:36:50.996Z,42.17
2018-12-24T16:39:21.149Z,37.07
2018-12-24T16:41:51.369Z,33.40
2018-12-24T16:44:21.571Z,34.13
2018-12-24T16:46:59.207Z,39.70
2018-12-24T16:49:23.723Z,33.13
2018-12-24T16:51:53.981Z,39.77
2018-12-24T16:54:24.263Z,33.50
2018-12-24T16:56:54.498Z,40.93
2018-12-24T16:59:24.795Z,40.37
2018-12-24T17:01:55.059Z,47.00
2018-12-24T17:04:25.370Z,59.17
2018-12-24T17:06:55.588Z,57.53
2018-12-24T17:09:25.951Z,44.40
2018-12-24T17:11:56.225Z,44.90
2018-12-24T17:14:26.480Z,40.23
2018-12-24T17:16:56.762Z,51.17
2018-12-24T17:19:27.927Z,50.13
2018-12-24T17:21:58.161Z,39.23
2018-12-24T17:24:28.381Z,29.97
2018-12-24T17:26:58.705Z,40.07
2018-12-24T17:29:28.913Z,37.67
2018-12-24T17:31:59.085Z,32.47
2018-12-24T17:34:29.261Z,28.70
2018-12-24T17:36:59.442Z,27.70
2018-12-24T17:39:29.827Z,24.07
2018-12-24T17:42:00.273Z,23.50
2018-12-24T17:44:30.552Z,28.80
2018-12-24T17:47:00.835Z,26.03
2018-12-24T17:49:31.134Z,26.80
2018-12-24T17:52:01.354Z,31.83
2018-12-24T17:54:31.542Z,30.07
2018-12-24T17:57:01.759Z,28.30
2018-12-24T17:59:31.969Z,26.93
2018-12-24T18:02:02.245Z,29.73
2018-12-24T18:04:33.591Z,29.13
2018-12-24T18:07:03.906Z,25.60
2018-12-24T18:09:34.106Z,21.87
2018-12-24T18:12:04.321Z,24.47
2018-12-24T18:14:34.549Z,27.33
2018-12-24T18:17:04.757Z,31.90
2018-12-24T18:19:34.934Z,25.33
2018-12-24T18:22:05.285Z,27.63
2018-12-24T18:24:35.434Z,22.80
2018-12-24T18:27:05.721Z,22.57
2018-12-24T18:29:36.078Z,26.50
2018-12-24T18:32:06.256Z,23.47
2018-12-24T18:34:36.650Z,22.57
2018-12-24T18:37:06.844Z,19.00
2018-12-24T18:39:37.259Z,27.73
2018-12-24T18:42:07.574Z,21.17
2018-12-24T18:44:37.974Z,18.63
2018-12-24T18:47:08.243Z,19.20
2018-12-24T18:49:38.583Z,19.67
2018-12-24T18:52:08.851Z,20.00
2018-12-24T18:54:39.237Z,25.10
2018-12-24T18:57:09.533Z,25.20
2018-12-24T18:59:39.730Z,25.17
2018-12-24T19:02:09.919Z,22.60
2018-12-24T19:04:40.958Z,21.40
2018-12-24T19:07:11.198Z,21.60
2018-12-24T19:09:41.369Z,21.30
2018-12-24T19:12:11.558Z,22.43
2018-12-24T19:14:42.039Z,23.97
2018-12-24T19:17:12.330Z,21.73
2018-12-24T19:19:42.588Z,24.37
2018-12-24T19:22:12.906Z,20.53
2018-12-24T19:24:43.217Z,20.03
2018-12-24T19:27:13.389Z,18.03
2018-12-24T19:29:43.561Z,21.40
2018-12-24T19:32:13.702Z,17.73
2018-12-24T19:34:44.005Z,16.40
2018-12-24T19:37:14.214Z,18.70
2018-12-24T19:39:44.359Z,19.27
2018-12-24T19:42:14.565Z,20.37
2018-12-24T19:44:44.789Z,16.80
2018-12-24T19:47:14.999Z,17.47
2018-12-24T19:49:45.214Z,18.20
2018-12-24T19:52:15.366Z,19.33
2018-12-24T19:54:45.606Z,17.97
2018-12-24T19:57:15.813Z,19.27
2018-12-24T19:59:46.507Z,16.87
2018-12-24T20:02:16.732Z,19.53
2018-12-24T20:04:47.182Z,20.30
2018-12-24T20:07:17.534Z,21.30
2018-12-24T20:09:47.755Z,14.60
2018-12-24T20:12:17.967Z,16.87
2018-12-24T20:14:48.715Z,18.17
2018-12-24T20:17:18.938Z,24.00
2018-12-24T20:19:49.149Z,25.70
2018-12-24T20:22:19.403Z,19.50
2018-12-24T20:24:49.621Z,20.50
2018-12-24T20:27:19.809Z,23.17
2018-12-24T20:29:49.982Z,24.23
2018-12-24T20:32:20.174Z,26.10
2018-12-24T20:34:50.413Z,21.57
2018-12-24T20:37:20.586Z,18.87
2018-12-24T20:39:50.795Z,24.40
2018-12-24T20:42:21.181Z,20.60
2018-12-24T20:44:51.459Z,21.37
2018-12-24T20:47:21.650Z,27.73
2018-12-24T20:49:51.985Z,19.23
2018-12-24T20:52:22.231Z,24.73
2018-12-24T20:54:52.475Z,23.43
2018-12-24T20:57:22.818Z,15.93
2018-12-24T20:59:53.126Z,23.63
2018-12-24T21:02:23.346Z,24.30
2018-12-24T21:04:53.586Z,20.10
2018-12-24T21:07:23.770Z,22.70
2018-12-24T21:09:54.071Z,24.10
2018-12-24T21:12:24.254Z,17.00
2018-12-24T21:14:54.477Z,24.80
2018-12-24T21:17:25.079Z,22.50
2018-12-24T21:19:55.324Z,31.17
2018-12-24T21:22:25.618Z,20.13
2018-12-24T21:24:55.817Z,23.37
2018-12-24T21:27:26.093Z,25.17
2018-12-24T21:29:56.435Z,22.20
2018-12-24T21:32:26.669Z,23.80
2018-12-24T21:34:56.915Z,20.43
2018-12-24T21:37:27.214Z,27.80
2018-12-24T21:39:57.542Z,19.70
2018-12-24T21:42:27.776Z,25.33
2018-12-24T21:44:58.001Z,28.50
2018-12-24T21:47:28.218Z,29.53
2018-12-24T21:49:58.474Z,30.53
2018-12-24T21:52:29.717Z,17.87
2018-12-24T21:54:59.990Z,30.87
2018-12-24T21:57:30.553Z,23.93
2018-12-24T22:00:00.912Z,22.80
2018-12-24T22:02:32.483Z,20.57
2018-12-24T22:05:02.842Z,19.87
2018-12-24T22:07:33.051Z,22.60
2018-12-24T22:10:03.337Z,21.13
2018-12-24T22:12:33.614Z,17.63
2018-12-24T22:15:03.838Z,19.07
2018-12-24T22:17:34.166Z,18.60
2018-12-24T22:20:04.484Z,24.00
2018-12-24T22:22:34.813Z,23.00
2018-12-24T22:25:04.979Z,19.17
2018-12-24T22:27:35.263Z,18.83
2018-12-24T22:30:06.050Z,25.77
2018-12-24T22:32:36.307Z,22.57
2018-12-24T22:35:06.509Z,21.70
2018-12-24T22:37:36.754Z,20.30
2018-12-24T22:40:07.221Z,26.03
2018-12-24T22:42:37.449Z,25.50
2018-12-24T22:45:07.602Z,25.90
2018-12-24T22:47:37.917Z,19.97
2018-12-24T22:50:08.163Z,19.33
2018-12-24T22:52:38.403Z,17.60
2018-12-24T22:55:08.754Z,19.97
2018-12-24T22:57:39.263Z,17.67
2018-12-24T23:00:13.062Z,15.80
2018-12-24T23:02:44.918Z,15.57
2018-12-24T23:05:15.211Z,17.37
2018-12-24T23:07:45.415Z,18.80
2018-12-24T23:10:15.597Z,12.57
2018-12-24T23:12:45.886Z,13.60
2018-12-24T23:15:16.077Z,14.83
2018-12-24T23:17:46.394Z,13.73
2018-12-24T23:20:16.600Z,16.73
2018-12-24T23:22:46.954Z,14.37
2018-12-24T23:25:17.194Z,15.30
2018-12-24T23:27:47.589Z,15.60
2018-12-24T23:30:17.938Z,10.70
2018-12-24T23:32:48.226Z,13.73
2018-12-24T23:35:18.392Z,10.93
2018-12-24T23:37:48.733Z,10.27
2018-12-24T23:40:18.882Z,11.73
2018-12-24T23:42:49.170Z,13.70
2018-12-24T23:45:19.451Z,10.93
2018-12-24T23:47:49.726Z,11.07
2018-12-24T23:50:19.943Z,14.03
2018-12-24T23:52:50.116Z,13.67
2018-12-24T23:55:20.425Z,11.57
2018-12-24T23:57:50.611Z,10.93
